sensor_id;sensor_type;location;lat;lon;timestamp;P1;P2;P0
56688;PMS5003;42565;53.342;-1.534;2022-09-09T00:00:15;29;26;
56688;PMS5003;42565;53.342;-1.534;2022-09-09T00:02:44;31;29;
56688;PMS5003;42565;53.342;-1.534;2022-09-09T00:05:22;24;23;
56688;PMS5003;42565;53.342;-1.534;2022-09-09T00:07:55;28;25;
56688;PMS5003;42565;53.342;-1.534;2022-09-09T00:10:28;28;25;
56688;PMS5003;42565;53.342;-1.534;2022-09-09T00:12:59;25;25;
56688;PMS5003;42565;53.342;-1.534;2022-09-09T00:15:33;25;24;
56688;PMS5003;42565;53.342;-1.534;2022-09-09T00:18:08;27;26;
56688;PMS5003;42565;53.342;-1.534;2022-09-09T00:20:44;23;22;
56688;PMS5003;42565;53.342;-1.534;2022-09-09T00:23:20;27;25;
56688;PMS5003;42565;53.342;-1.534;2022-09-09T00:25:54;29;28;
56688;PMS5003;42565;53.342;-1.534;2022-09-09T00:28:28;28;27;
56688;PMS5003;42565;53.342;-1.534;2022-09-09T00:30:59;30;27;
56688;PMS5003;42565;53.342;-1.534;2022-09-09T00:33:38;31;30;
56688;PMS5003;42565;53.342;-1.534;2022-09-09T00:36:07;25;25;
56688;PMS5003;42565;53.342;-1.534;2022-09-09T00:38:40;30;29;
56688;PMS5003;42565;53.342;-1.534;2022-09-09T00:41:11;26;25;
56688;PMS5003;42565;53.342;-1.534;2022-09-09T00:43:49;31;29;
56688;PMS5003;42565;53.342;-1.534;2022-09-09T00:46:31;28;27;
56688;PMS5003;42565;53.342;-1.534;2022-09-09T00:49:15;28;28;
56688;PMS5003;42565;53.342;-1.534;2022-09-09T00:51:54;24;23;
56688;PMS5003;42565;53.342;-1.534;2022-09-09T00:54:34;26;26;
56688;PMS5003;42565;53.342;-1.534;2022-09-09T00:57:13;31;29;
56688;PMS5003;42565;53.342;-1.534;2022-09-09T00:59:51;30;27;
56688;PMS5003;42565;53.342;-1.534;2022-09-09T01:02:26;33;30;
56688;PMS5003;42565;53.342;-1.534;2022-09-09T01:04:58;33;30;
56688;PMS5003;42565;53.342;-1.534;2022-09-09T01:07:32;32;29;
56688;PMS5003;42565;53.342;-1.534;2022-09-09T01:09:59;29;25;
56688;PMS5003;42565;53.342;-1.534;2022-09-09T01:12:33;27;25;
56688;PMS5003;42565;53.342;-1.534;2022-09-09T01:15:08;29;28;
56688;PMS5003;42565;53.342;-1.534;2022-09-09T01:17:44;28;26;
56688;PMS5003;42565;53.342;-1.534;2022-09-09T01:20:18;23;21;
56688;PMS5003;42565;53.342;-1.534;2022-09-09T01:23:04;29;25;
56688;PMS5003;42565;53.342;-1.534;2022-09-09T01:26:16;28;27;
56688;PMS5003;42565;53.342;-1.534;2022-09-09T01:28:48;32;29;
56688;PMS5003;42565;53.342;-1.534;2022-09-09T01:31:18;26;25;
56688;PMS5003;42565;53.342;-1.534;2022-09-09T01:33:48;29;26;
56688;PMS5003;42565;53.342;-1.534;2022-09-09T01:36:18;32;29;
56688;PMS5003;42565;53.342;-1.534;2022-09-09T01:38:51;27;25;
56688;PMS5003;42565;53.342;-1.534;2022-09-09T01:41:19;30;28;
56688;PMS5003;42565;53.342;-1.534;2022-09-09T01:43:47;26;23;
56688;PMS5003;42565;53.342;-1.534;2022-09-09T01:46:15;25;23;
56688;PMS5003;42565;53.342;-1.534;2022-09-09T01:48:43;24;23;
56688;PMS5003;42565;53.342;-1.534;2022-09-09T01:51:11;25;24;
56688;PMS5003;42565;53.342;-1.534;2022-09-09T01:53:38;25;23;
56688;PMS5003;42565;53.342;-1.534;2022-09-09T01:56:10;26;25;
56688;PMS5003;42565;53.342;-1.534;2022-09-09T01:58:52;31;25;
56688;PMS5003;42565;53.342;-1.534;2022-09-09T02:01:36;29;26;
56688;PMS5003;42565;53.342;-1.534;2022-09-09T02:04:21;29;26;
56688;PMS5003;42565;53.342;-1.534;2022-09-09T02:06:57;30;27;
56688;PMS5003;42565;53.342;-1.534;2022-09-09T02:09:26;26;26;
56688;PMS5003;42565;53.342;-1.534;2022-09-09T02:11:58;27;26;
56688;PMS5003;42565;53.342;-1.534;2022-09-09T02:14:30;29;26;
56688;PMS5003;42565;53.342;-1.534;2022-09-09T02:17:03;25;23;
56688;PMS5003;42565;53.342;-1.534;2022-09-09T02:19:36;28;26;
56688;PMS5003;42565;53.342;-1.534;2022-09-09T02:22:07;24;24;
56688;PMS5003;42565;53.342;-1.534;2022-09-09T02:24:36;21;20;
56688;PMS5003;42565;53.342;-1.534;2022-09-09T02:27:06;27;23;
56688;PMS5003;42565;53.342;-1.534;2022-09-09T02:29:36;23;21;
56688;PMS5003;42565;53.342;-1.534;2022-09-09T02:32:06;25;22;
56688;PMS5003;42565;53.342;-1.534;2022-09-09T02:34:40;25;22;
56688;PMS5003;42565;53.342;-1.534;2022-09-09T02:37:11;27;27;
56688;PMS5003;42565;53.342;-1.534;2022-09-09T02:39:41;25;23;
56688;PMS5003;42565;53.342;-1.534;2022-09-09T02:42:08;28;26;
56688;PMS5003;42565;53.342;-1.534;2022-09-09T02:44:35;30;28;
56688;PMS5003;42565;53.342;-1.534;2022-09-09T02:47:07;27;27;
56688;PMS5003;42565;53.342;-1.534;2022-09-09T02:49:50;29;25;
56688;PMS5003;42565;53.342;-1.534;2022-09-09T02:52:30;28;26;
56688;PMS5003;42565;53.342;-1.534;2022-09-09T02:55:06;31;29;
56688;PMS5003;42565;53.342;-1.534;2022-09-09T02:57:47;23;21;
56688;PMS5003;42565;53.342;-1.534;2022-09-09T03:00:15;25;22;
56688;PMS5003;42565;53.342;-1.534;2022-09-09T03:02:48;24;22;
56688;PMS5003;42565;53.342;-1.534;2022-09-09T03:05:15;33;30;
56688;PMS5003;42565;53.342;-1.534;2022-09-09T03:07:42;23;22;
56688;PMS5003;42565;53.342;-1.534;2022-09-09T03:10:09;21;19;
56688;PMS5003;42565;53.342;-1.534;2022-09-09T03:12:36;25;23;
56688;PMS5003;42565;53.342;-1.534;2022-09-09T03:15:04;23;22;
56688;PMS5003;42565;53.342;-1.534;2022-09-09T03:17:32;28;24;
56688;PMS5003;42565;53.342;-1.534;2022-09-09T03:19:58;24;22;
56688;PMS5003;42565;53.342;-1.534;2022-09-09T03:22:25;23;22;
56688;PMS5003;42565;53.342;-1.534;2022-09-09T03:24:52;26;24;
56688;PMS5003;42565;53.342;-1.534;2022-09-09T03:27:19;26;25;
56688;PMS5003;42565;53.342;-1.534;2022-09-09T03:29:46;32;30;
56688;PMS5003;42565;53.342;-1.534;2022-09-09T03:32:13;27;26;
56688;PMS5003;42565;53.342;-1.534;2022-09-09T03:34:40;22;21;
56688;PMS5003;42565;53.342;-1.534;2022-09-09T03:37:07;29;26;
56688;PMS5003;42565;53.342;-1.534;2022-09-09T03:39:35;28;27;
56688;PMS5003;42565;53.342;-1.534;2022-09-09T03:42:02;26;23;
56688;PMS5003;42565;53.342;-1.534;2022-09-09T03:44:29;26;24;
56688;PMS5003;42565;53.342;-1.534;2022-09-09T03:46:56;25;22;
56688;PMS5003;42565;53.342;-1.534;2022-09-09T03:49:23;27;25;
56688;PMS5003;42565;53.342;-1.534;2022-09-09T03:51:51;27;26;
56688;PMS5003;42565;53.342;-1.534;2022-09-09T03:54:18;28;25;
56688;PMS5003;42565;53.342;-1.534;2022-09-09T03:56:45;24;22;
56688;PMS5003;42565;53.342;-1.534;2022-09-09T03:59:12;29;26;
56688;PMS5003;42565;53.342;-1.534;2022-09-09T04:01:39;28;25;
56688;PMS5003;42565;53.342;-1.534;2022-09-09T04:04:06;29;25;
56688;PMS5003;42565;53.342;-1.534;2022-09-09T04:06:32;24;23;
56688;PMS5003;42565;53.342;-1.534;2022-09-09T04:09:00;25;23;
56688;PMS5003;42565;53.342;-1.534;2022-09-09T04:11:27;25;24;
56688;PMS5003;42565;53.342;-1.534;2022-09-09T04:13:55;23;21;
56688;PMS5003;42565;53.342;-1.534;2022-09-09T04:16:21;22;21;
56688;PMS5003;42565;53.342;-1.534;2022-09-09T04:18:49;21;18;
56688;PMS5003;42565;53.342;-1.534;2022-09-09T04:21:15;21;21;
56688;PMS5003;42565;53.342;-1.534;2022-09-09T04:23:42;22;22;
56688;PMS5003;42565;53.342;-1.534;2022-09-09T04:26:10;24;21;
56688;PMS5003;42565;53.342;-1.534;2022-09-09T04:28:37;19;19;
56688;PMS5003;42565;53.342;-1.534;2022-09-09T04:31:04;25;23;
56688;PMS5003;42565;53.342;-1.534;2022-09-09T04:33:33;20;20;
56688;PMS5003;42565;53.342;-1.534;2022-09-09T04:36:00;18;16;
56688;PMS5003;42565;53.342;-1.534;2022-09-09T04:38:27;24;21;
56688;PMS5003;42565;53.342;-1.534;2022-09-09T04:40:54;21;20;
56688;PMS5003;42565;53.342;-1.534;2022-09-09T04:43:21;22;22;
56688;PMS5003;42565;53.342;-1.534;2022-09-09T04:45:49;18;18;
56688;PMS5003;42565;53.342;-1.534;2022-09-09T04:48:18;16;15;
56688;PMS5003;42565;53.342;-1.534;2022-09-09T04:50:53;21;20;
56688;PMS5003;42565;53.342;-1.534;2022-09-09T04:53:21;23;23;
56688;PMS5003;42565;53.342;-1.534;2022-09-09T04:55:48;17;16;
56688;PMS5003;42565;53.342;-1.534;2022-09-09T04:58:16;26;22;
56688;PMS5003;42565;53.342;-1.534;2022-09-09T05:00:43;18;17;
56688;PMS5003;42565;53.342;-1.534;2022-09-09T05:03:10;21;20;
56688;PMS5003;42565;53.342;-1.534;2022-09-09T05:05:37;21;21;
56688;PMS5003;42565;53.342;-1.534;2022-09-09T05:08:05;23;20;
56688;PMS5003;42565;53.342;-1.534;2022-09-09T05:10:33;21;21;
56688;PMS5003;42565;53.342;-1.534;2022-09-09T05:13:03;19;19;
56688;PMS5003;42565;53.342;-1.534;2022-09-09T05:15:31;23;22;
56688;PMS5003;42565;53.342;-1.534;2022-09-09T05:17:58;22;21;
56688;PMS5003;42565;53.342;-1.534;2022-09-09T05:20:26;22;20;
56688;PMS5003;42565;53.342;-1.534;2022-09-09T05:22:54;23;22;
56688;PMS5003;42565;53.342;-1.534;2022-09-09T05:25:21;23;20;
56688;PMS5003;42565;53.342;-1.534;2022-09-09T05:27:48;22;22;
56688;PMS5003;42565;53.342;-1.534;2022-09-09T05:30:15;21;19;
56688;PMS5003;42565;53.342;-1.534;2022-09-09T05:32:43;20;18;
56688;PMS5003;42565;53.342;-1.534;2022-09-09T05:35:10;25;21;
56688;PMS5003;42565;53.342;-1.534;2022-09-09T05:37:36;25;24;
56688;PMS5003;42565;53.342;-1.534;2022-09-09T05:40:04;24;24;
56688;PMS5003;42565;53.342;-1.534;2022-09-09T05:42:32;23;23;
56688;PMS5003;42565;53.342;-1.534;2022-09-09T05:44:59;23;20;
56688;PMS5003;42565;53.342;-1.534;2022-09-09T05:47:26;23;22;
56688;PMS5003;42565;53.342;-1.534;2022-09-09T05:49:54;23;22;
56688;PMS5003;42565;53.342;-1.534;2022-09-09T05:52:21;24;22;
56688;PMS5003;42565;53.342;-1.534;2022-09-09T05:54:48;24;23;
56688;PMS5003;42565;53.342;-1.534;2022-09-09T05:57:15;21;21;
56688;PMS5003;42565;53.342;-1.534;2022-09-09T05:59:41;22;21;
56688;PMS5003;42565;53.342;-1.534;2022-09-09T06:02:09;21;21;
56688;PMS5003;42565;53.342;-1.534;2022-09-09T06:04:35;27;25;
56688;PMS5003;42565;53.342;-1.534;2022-09-09T06:07:02;26;21;
56688;PMS5003;42565;53.342;-1.534;2022-09-09T06:09:30;30;26;
56688;PMS5003;42565;53.342;-1.534;2022-09-09T06:11:58;29;28;
56688;PMS5003;42565;53.342;-1.534;2022-09-09T06:14:25;27;26;
56688;PMS5003;42565;53.342;-1.534;2022-09-09T06:16:51;25;25;
56688;PMS5003;42565;53.342;-1.534;2022-09-09T06:19:19;29;27;
56688;PMS5003;42565;53.342;-1.534;2022-09-09T06:21:46;31;25;
56688;PMS5003;42565;53.342;-1.534;2022-09-09T06:24:13;32;29;
56688;PMS5003;42565;53.342;-1.534;2022-09-09T06:26:40;24;24;
56688;PMS5003;42565;53.342;-1.534;2022-09-09T06:29:07;27;25;
56688;PMS5003;42565;53.342;-1.534;2022-09-09T06:31:37;28;26;
56688;PMS5003;42565;53.342;-1.534;2022-09-09T06:34:04;26;24;
56688;PMS5003;42565;53.342;-1.534;2022-09-09T06:36:32;27;25;
56688;PMS5003;42565;53.342;-1.534;2022-09-09T06:39:01;28;24;
56688;PMS5003;42565;53.342;-1.534;2022-09-09T06:41:29;25;25;
56688;PMS5003;42565;53.342;-1.534;2022-09-09T06:43:58;26;25;
56688;PMS5003;42565;53.342;-1.534;2022-09-09T06:46:26;22;22;
56688;PMS5003;42565;53.342;-1.534;2022-09-09T06:48:54;23;23;
56688;PMS5003;42565;53.342;-1.534;2022-09-09T06:51:23;32;28;
56688;PMS5003;42565;53.342;-1.534;2022-09-09T06:53:52;32;26;
56688;PMS5003;42565;53.342;-1.534;2022-09-09T06:56:22;23;22;
56688;PMS5003;42565;53.342;-1.534;2022-09-09T06:58:50;28;27;
56688;PMS5003;42565;53.342;-1.534;2022-09-09T07:01:19;23;22;
56688;PMS5003;42565;53.342;-1.534;2022-09-09T07:03:47;23;23;
56688;PMS5003;42565;53.342;-1.534;2022-09-09T07:06:16;24;21;
56688;PMS5003;42565;53.342;-1.534;2022-09-09T07:08:48;23;23;
56688;PMS5003;42565;53.342;-1.534;2022-09-09T07:11:18;25;21;
56688;PMS5003;42565;53.342;-1.534;2022-09-09T07:13:46;28;28;
56688;PMS5003;42565;53.342;-1.534;2022-09-09T07:16:13;21;20;
56688;PMS5003;42565;53.342;-1.534;2022-09-09T07:18:42;27;26;
56688;PMS5003;42565;53.342;-1.534;2022-09-09T07:21:10;21;20;
56688;PMS5003;42565;53.342;-1.534;2022-09-09T07:23:38;21;20;
56688;PMS5003;42565;53.342;-1.534;2022-09-09T07:26:07;22;22;
56688;PMS5003;42565;53.342;-1.534;2022-09-09T07:28:35;23;23;
56688;PMS5003;42565;53.342;-1.534;2022-09-09T07:31:04;23;22;
56688;PMS5003;42565;53.342;-1.534;2022-09-09T07:33:32;20;18;
56688;PMS5003;42565;53.342;-1.534;2022-09-09T07:36:03;24;23;
56688;PMS5003;42565;53.342;-1.534;2022-09-09T07:38:31;23;21;
56688;PMS5003;42565;53.342;-1.534;2022-09-09T07:41:03;25;23;
56688;PMS5003;42565;53.342;-1.534;2022-09-09T07:43:31;20;19;
56688;PMS5003;42565;53.342;-1.534;2022-09-09T07:45:58;26;20;
56688;PMS5003;42565;53.342;-1.534;2022-09-09T07:48:27;20;19;
56688;PMS5003;42565;53.342;-1.534;2022-09-09T07:51:03;22;21;
56688;PMS5003;42565;53.342;-1.534;2022-09-09T07:53:33;17;17;
56688;PMS5003;42565;53.342;-1.534;2022-09-09T07:56:02;20;19;
56688;PMS5003;42565;53.342;-1.534;2022-09-09T07:58:30;19;19;
56688;PMS5003;42565;53.342;-1.534;2022-09-09T08:00:57;23;20;
56688;PMS5003;42565;53.342;-1.534;2022-09-09T08:03:24;21;20;
56688;PMS5003;42565;53.342;-1.534;2022-09-09T08:05:51;24;21;
56688;PMS5003;42565;53.342;-1.534;2022-09-09T08:08:18;21;20;
56688;PMS5003;42565;53.342;-1.534;2022-09-09T08:10:45;24;20;
56688;PMS5003;42565;53.342;-1.534;2022-09-09T08:13:12;20;20;
56688;PMS5003;42565;53.342;-1.534;2022-09-09T08:15:39;21;19;
56688;PMS5003;42565;53.342;-1.534;2022-09-09T08:18:06;18;17;
56688;PMS5003;42565;53.342;-1.534;2022-09-09T08:20:35;20;18;
56688;PMS5003;42565;53.342;-1.534;2022-09-09T08:23:02;20;19;
56688;PMS5003;42565;53.342;-1.534;2022-09-09T08:25:29;19;17;
56688;PMS5003;42565;53.342;-1.534;2022-09-09T08:27:56;17;15;
56688;PMS5003;42565;53.342;-1.534;2022-09-09T08:30:22;17;16;
56688;PMS5003;42565;53.342;-1.534;2022-09-09T08:32:49;17;14;
56688;PMS5003;42565;53.342;-1.534;2022-09-09T08:35:17;16;16;
56688;PMS5003;42565;53.342;-1.534;2022-09-09T08:37:43;16;16;
56688;PMS5003;42565;53.342;-1.534;2022-09-09T08:40:11;17;17;
56688;PMS5003;42565;53.342;-1.534;2022-09-09T08:42:49;15;15;
56688;PMS5003;42565;53.342;-1.534;2022-09-09T08:45:24;18;17;
56688;PMS5003;42565;53.342;-1.534;2022-09-09T08:48:05;15;14;
56688;PMS5003;42565;53.342;-1.534;2022-09-09T08:50:42;15;14;
56688;PMS5003;42565;53.342;-1.534;2022-09-09T08:53:11;14;13;
56688;PMS5003;42565;53.342;-1.534;2022-09-09T08:55:45;15;13;
56688;PMS5003;42565;53.342;-1.534;2022-09-09T08:58:15;14;11;
56688;PMS5003;42565;53.342;-1.534;2022-09-09T09:00:47;15;14;
56688;PMS5003;42565;53.342;-1.534;2022-09-09T09:03:29;11;11;
56688;PMS5003;42565;53.342;-1.534;2022-09-09T09:06:07;14;14;
56688;PMS5003;42565;53.342;-1.534;2022-09-09T09:08:48;10;9;
56688;PMS5003;42565;53.342;-1.534;2022-09-09T09:11:22;12;12;
56688;PMS5003;42565;53.342;-1.534;2022-09-09T09:13:51;12;11;
56688;PMS5003;42565;53.342;-1.534;2022-09-09T09:16:23;9;9;
56688;PMS5003;42565;53.342;-1.534;2022-09-09T09:18:57;10;10;
56688;PMS5003;42565;53.342;-1.534;2022-09-09T09:21:26;13;12;
56688;PMS5003;42565;53.342;-1.534;2022-09-09T09:24:00;11;10;
56688;PMS5003;42565;53.342;-1.534;2022-09-09T09:26:32;8;8;
56688;PMS5003;42565;53.342;-1.534;2022-09-09T09:29:03;8;8;
56688;PMS5003;42565;53.342;-1.534;2022-09-09T09:31:37;9;8;
56688;PMS5003;42565;53.342;-1.534;2022-09-09T09:34:04;10;10;
56688;PMS5003;42565;53.342;-1.534;2022-09-09T09:36:37;9;9;
56688;PMS5003;42565;53.342;-1.534;2022-09-09T09:39:08;9;9;
56688;PMS5003;42565;53.342;-1.534;2022-09-09T09:41:36;7;7;
56688;PMS5003;42565;53.342;-1.534;2022-09-09T09:44:05;8;7;
56688;PMS5003;42565;53.342;-1.534;2022-09-09T09:46:47;4;4;
56688;PMS5003;42565;53.342;-1.534;2022-09-09T09:49:15;5;5;
56688;PMS5003;42565;53.342;-1.534;2022-09-09T09:51:42;9;8;
56688;PMS5003;42565;53.342;-1.534;2022-09-09T09:54:14;6;5;
56688;PMS5003;42565;53.342;-1.534;2022-09-09T09:56:45;5;5;
56688;PMS5003;42565;53.342;-1.534;2022-09-09T09:59:20;5;5;
56688;PMS5003;42565;53.342;-1.534;2022-09-09T10:01:49;6;6;
56688;PMS5003;42565;53.342;-1.534;2022-09-09T10:04:18;4;3;
56688;PMS5003;42565;53.342;-1.534;2022-09-09T10:06:46;5;5;
56688;PMS5003;42565;53.342;-1.534;2022-09-09T10:09:22;5;5;
56688;PMS5003;42565;53.342;-1.534;2022-09-09T10:11:52;8;5;
56688;PMS5003;42565;53.342;-1.534;2022-09-09T10:14:30;5;5;
56688;PMS5003;42565;53.342;-1.534;2022-09-09T10:17:09;4;4;
56688;PMS5003;42565;53.342;-1.534;2022-09-09T10:19:51;7;6;
56688;PMS5003;42565;53.342;-1.534;2022-09-09T10:22:28;3;3;
56688;PMS5003;42565;53.342;-1.534;2022-09-09T10:25:07;5;5;
56688;PMS5003;42565;53.342;-1.534;2022-09-09T10:27:49;4;4;
56688;PMS5003;42565;53.342;-1.534;2022-09-09T10:30:39;6;5;
56688;PMS5003;42565;53.342;-1.534;2022-09-09T10:33:19;5;5;
56688;PMS5003;42565;53.342;-1.534;2022-09-09T10:35:53;5;4;
56688;PMS5003;42565;53.342;-1.534;2022-09-09T10:38:33;5;5;
56688;PMS5003;42565;53.342;-1.534;2022-09-09T10:41:24;5;5;
56688;PMS5003;42565;53.342;-1.534;2022-09-09T10:44:11;4;4;
56688;PMS5003;42565;53.342;-1.534;2022-09-09T10:47:10;4;3;
56688;PMS5003;42565;53.342;-1.534;2022-09-09T10:49:58;4;4;
56688;PMS5003;42565;53.342;-1.534;2022-09-09T10:52:38;5;4;
56688;PMS5003;42565;53.342;-1.534;2022-09-09T10:55:15;3;3;
56688;PMS5003;42565;53.342;-1.534;2022-09-09T10:57:45;3;2;
56688;PMS5003;42565;53.342;-1.534;2022-09-09T11:00:15;5;3;
56688;PMS5003;42565;53.342;-1.534;2022-09-09T11:02:45;6;5;
56688;PMS5003;42565;53.342;-1.534;2022-09-09T11:05:18;3;3;
56688;PMS5003;42565;53.342;-1.534;2022-09-09T11:07:48;4;3;
56688;PMS5003;42565;53.342;-1.534;2022-09-09T11:10:22;6;5;
56688;PMS5003;42565;53.342;-1.534;2022-09-09T11:12:56;6;5;
56688;PMS5003;42565;53.342;-1.534;2022-09-09T11:15:30;3;3;
56688;PMS5003;42565;53.342;-1.534;2022-09-09T11:18:03;4;3;
56688;PMS5003;42565;53.342;-1.534;2022-09-09T11:20:33;4;4;
56688;PMS5003;42565;53.342;-1.534;2022-09-09T11:23:01;3;3;
56688;PMS5003;42565;53.342;-1.534;2022-09-09T11:25:34;3;3;
56688;PMS5003;42565;53.342;-1.534;2022-09-09T11:28:18;2;2;
56688;PMS5003;42565;53.342;-1.534;2022-09-09T11:31:00;2;2;
56688;PMS5003;42565;53.342;-1.534;2022-09-09T11:33:50;5;4;
56688;PMS5003;42565;53.342;-1.534;2022-09-09T11:36:34;4;4;
56688;PMS5003;42565;53.342;-1.534;2022-09-09T11:40:16;3;3;
56688;PMS5003;42565;53.342;-1.534;2022-09-09T11:42:49;3;3;
56688;PMS5003;42565;53.342;-1.534;2022-09-09T11:45:27;3;3;
56688;PMS5003;42565;53.342;-1.534;2022-09-09T11:47:55;3;3;
56688;PMS5003;42565;53.342;-1.534;2022-09-09T11:50:27;4;4;
56688;PMS5003;42565;53.342;-1.534;2022-09-09T11:53:06;2;2;
56688;PMS5003;42565;53.342;-1.534;2022-09-09T11:55:45;2;2;
56688;PMS5003;42565;53.342;-1.534;2022-09-09T11:58:15;2;2;
56688;PMS5003;42565;53.342;-1.534;2022-09-09T12:00:45;1;1;
56688;PMS5003;42565;53.342;-1.534;2022-09-09T12:03:31;1;1;
56688;PMS5003;42565;53.342;-1.534;2022-09-09T12:06:08;1;1;
56688;PMS5003;42565;53.342;-1.534;2022-09-09T12:08:37;2;2;
56688;PMS5003;42565;53.342;-1.534;2022-09-09T12:11:09;4;3;
56688;PMS5003;42565;53.342;-1.534;2022-09-09T12:13:37;4;4;
56688;PMS5003;42565;53.342;-1.534;2022-09-09T12:16:04;3;3;
56688;PMS5003;42565;53.342;-1.534;2022-09-09T12:18:32;3;3;
56688;PMS5003;42565;53.342;-1.534;2022-09-09T12:21:03;4;4;
56688;PMS5003;42565;53.342;-1.534;2022-09-09T12:23:40;3;2;
56688;PMS5003;42565;53.342;-1.534;2022-09-09T12:26:21;4;4;
56688;PMS5003;42565;53.342;-1.534;2022-09-09T12:28:59;2;2;
56688;PMS5003;42565;53.342;-1.534;2022-09-09T12:31:38;3;3;
56688;PMS5003;42565;53.342;-1.534;2022-09-09T12:34:11;3;2;
56688;PMS5003;42565;53.342;-1.534;2022-09-09T12:36:42;3;3;
56688;PMS5003;42565;53.342;-1.534;2022-09-09T12:39:16;6;4;
56688;PMS5003;42565;53.342;-1.534;2022-09-09T12:41:51;3;3;
56688;PMS5003;42565;53.342;-1.534;2022-09-09T12:44:19;2;2;
56688;PMS5003;42565;53.342;-1.534;2022-09-09T12:46:46;2;1;
56688;PMS5003;42565;53.342;-1.534;2022-09-09T12:49:24;3;3;
56688;PMS5003;42565;53.342;-1.534;2022-09-09T12:51:55;2;2;
56688;PMS5003;42565;53.342;-1.534;2022-09-09T12:54:23;4;3;
56688;PMS5003;42565;53.342;-1.534;2022-09-09T12:56:50;3;3;
56688;PMS5003;42565;53.342;-1.534;2022-09-09T12:59:21;3;2;
56688;PMS5003;42565;53.342;-1.534;2022-09-09T13:01:55;2;2;
56688;PMS5003;42565;53.342;-1.534;2022-09-09T13:04:23;3;2;
56688;PMS5003;42565;53.342;-1.534;2022-09-09T13:06:50;2;2;
56688;PMS5003;42565;53.342;-1.534;2022-09-09T13:09:17;3;3;
56688;PMS5003;42565;53.342;-1.534;2022-09-09T13:11:46;4;3;
56688;PMS5003;42565;53.342;-1.534;2022-09-09T13:14:17;3;2;
56688;PMS5003;42565;53.342;-1.534;2022-09-09T13:16:54;3;2;
56688;PMS5003;42565;53.342;-1.534;2022-09-09T13:19:23;2;1;
56688;PMS5003;42565;53.342;-1.534;2022-09-09T13:21:51;0;0;
56688;PMS5003;42565;53.342;-1.534;2022-09-09T13:24:27;0;0;
56688;PMS5003;42565;53.342;-1.534;2022-09-09T13:26:57;1;1;
56688;PMS5003;42565;53.342;-1.534;2022-09-09T13:29:25;1;1;
56688;PMS5003;42565;53.342;-1.534;2022-09-09T13:31:52;1;1;
56688;PMS5003;42565;53.342;-1.534;2022-09-09T13:34:28;1;1;
56688;PMS5003;42565;53.342;-1.534;2022-09-09T13:36:59;1;1;
56688;PMS5003;42565;53.342;-1.534;2022-09-09T13:39:27;1;1;
56688;PMS5003;42565;53.342;-1.534;2022-09-09T13:41:55;1;1;
56688;PMS5003;42565;53.342;-1.534;2022-09-09T13:44:23;1;1;
56688;PMS5003;42565;53.342;-1.534;2022-09-09T13:47:01;2;2;
56688;PMS5003;42565;53.342;-1.534;2022-09-09T13:49:30;1;1;
56688;PMS5003;42565;53.342;-1.534;2022-09-09T13:52:09;1;1;
56688;PMS5003;42565;53.342;-1.534;2022-09-09T13:54:36;1;1;
56688;PMS5003;42565;53.342;-1.534;2022-09-09T13:57:04;3;2;
56688;PMS5003;42565;53.342;-1.534;2022-09-09T13:59:32;2;2;
56688;PMS5003;42565;53.342;-1.534;2022-09-09T14:01:59;1;1;
56688;PMS5003;42565;53.342;-1.534;2022-09-09T14:04:26;1;1;
56688;PMS5003;42565;53.342;-1.534;2022-09-09T14:06:54;0;0;
56688;PMS5003;42565;53.342;-1.534;2022-09-09T14:09:21;1;1;
56688;PMS5003;42565;53.342;-1.534;2022-09-09T14:11:49;0;0;
56688;PMS5003;42565;53.342;-1.534;2022-09-09T14:14:15;1;1;
56688;PMS5003;42565;53.342;-1.534;2022-09-09T14:16:42;0;0;
56688;PMS5003;42565;53.342;-1.534;2022-09-09T14:19:09;0;0;
56688;PMS5003;42565;53.342;-1.534;2022-09-09T14:21:36;1;1;
56688;PMS5003;42565;53.342;-1.534;2022-09-09T14:24:04;1;1;
56688;PMS5003;42565;53.342;-1.534;2022-09-09T14:26:31;2;1;
56688;PMS5003;42565;53.342;-1.534;2022-09-09T14:28:58;1;1;
56688;PMS5003;42565;53.342;-1.534;2022-09-09T14:31:26;2;1;
56688;PMS5003;42565;53.342;-1.534;2022-09-09T14:33:53;0;0;
56688;PMS5003;42565;53.342;-1.534;2022-09-09T14:36:21;0;0;
56688;PMS5003;42565;53.342;-1.534;2022-09-09T14:38:48;2;0;
56688;PMS5003;42565;53.342;-1.534;2022-09-09T14:41:16;0;0;
56688;PMS5003;42565;53.342;-1.534;2022-09-09T14:43:44;0;0;
56688;PMS5003;42565;53.342;-1.534;2022-09-09T14:46:12;0;0;
56688;PMS5003;42565;53.342;-1.534;2022-09-09T14:48:41;1;1;
56688;PMS5003;42565;53.342;-1.534;2022-09-09T14:51:09;0;0;
56688;PMS5003;42565;53.342;-1.534;2022-09-09T14:53:37;0;0;
56688;PMS5003;42565;53.342;-1.534;2022-09-09T14:56:05;0;0;
56688;PMS5003;42565;53.342;-1.534;2022-09-09T14:58:33;0;0;
56688;PMS5003;42565;53.342;-1.534;2022-09-09T15:01:02;0;0;
56688;PMS5003;42565;53.342;-1.534;2022-09-09T15:03:30;0;0;
56688;PMS5003;42565;53.342;-1.534;2022-09-09T15:05:58;1;0;
56688;PMS5003;42565;53.342;-1.534;2022-09-09T15:08:25;0;0;
56688;PMS5003;42565;53.342;-1.534;2022-09-09T15:10:58;0;0;
56688;PMS5003;42565;53.342;-1.534;2022-09-09T15:13:25;1;0;
56688;PMS5003;42565;53.342;-1.534;2022-09-09T15:15:53;0;0;
56688;PMS5003;42565;53.342;-1.534;2022-09-09T15:18:20;0;0;
56688;PMS5003;42565;53.342;-1.534;2022-09-09T15:20:48;1;0;
56688;PMS5003;42565;53.342;-1.534;2022-09-09T15:23:14;0;0;
56688;PMS5003;42565;53.342;-1.534;2022-09-09T15:25:49;1;0;
56688;PMS5003;42565;53.342;-1.534;2022-09-09T15:28:17;0;0;
56688;PMS5003;42565;53.342;-1.534;2022-09-09T15:30:47;1;0;
56688;PMS5003;42565;53.342;-1.534;2022-09-09T15:33:15;0;0;
56688;PMS5003;42565;53.342;-1.534;2022-09-09T15:35:42;0;0;
56688;PMS5003;42565;53.342;-1.534;2022-09-09T15:38:10;0;0;
56688;PMS5003;42565;53.342;-1.534;2022-09-09T15:40:37;0;0;
56688;PMS5003;42565;53.342;-1.534;2022-09-09T15:43:04;0;0;
56688;PMS5003;42565;53.342;-1.534;2022-09-09T15:45:32;0;0;
56688;PMS5003;42565;53.342;-1.534;2022-09-09T15:48:09;0;0;
56688;PMS5003;42565;53.342;-1.534;2022-09-09T15:50:36;0;0;
56688;PMS5003;42565;53.342;-1.534;2022-09-09T15:53:04;1;1;
56688;PMS5003;42565;53.342;-1.534;2022-09-09T15:55:30;0;0;
56688;PMS5003;42565;53.342;-1.534;2022-09-09T15:57:58;0;0;
56688;PMS5003;42565;53.342;-1.534;2022-09-09T16:00:25;0;0;
56688;PMS5003;42565;53.342;-1.534;2022-09-09T16:02:53;0;0;
56688;PMS5003;42565;53.342;-1.534;2022-09-09T16:05:20;0;0;
56688;PMS5003;42565;53.342;-1.534;2022-09-09T16:07:48;1;1;
56688;PMS5003;42565;53.342;-1.534;2022-09-09T16:10:14;1;0;
56688;PMS5003;42565;53.342;-1.534;2022-09-09T16:12:41;1;1;
56688;PMS5003;42565;53.342;-1.534;2022-09-09T16:15:08;1;1;
56688;PMS5003;42565;53.342;-1.534;2022-09-09T16:17:35;1;1;
56688;PMS5003;42565;53.342;-1.534;2022-09-09T16:20:02;0;0;
56688;PMS5003;42565;53.342;-1.534;2022-09-09T16:22:31;0;0;
56688;PMS5003;42565;53.342;-1.534;2022-09-09T16:24:57;0;0;
56688;PMS5003;42565;53.342;-1.534;2022-09-09T16:27:24;1;0;
56688;PMS5003;42565;53.342;-1.534;2022-09-09T16:29:51;1;1;
56688;PMS5003;42565;53.342;-1.534;2022-09-09T16:32:18;0;0;
56688;PMS5003;42565;53.342;-1.534;2022-09-09T16:34:45;0;0;
56688;PMS5003;42565;53.342;-1.534;2022-09-09T16:37:11;0;0;
56688;PMS5003;42565;53.342;-1.534;2022-09-09T16:39:38;0;0;